Time;durP1;ratioP1;P1;durP2;ratioP2;P2;SDS_P1;SDS_P2;PMS_P1;PMS_P2;Temp;Humidity;BMP_temperature;BMP_pressure;BME280_temperature;BME280_humidity;BME280_pressure;Samples;Min_cycle;Max_cycle;Signal;HPM_P1;HPM_P2
2022/06/29 00:01:35;;;;;;;2.80;2.12;;;21.70;99.90;;;;;;1903573;75;21078;-83
2022/06/29 00:04:26;;;;;;;3.20;2.20;;;21.70;99.90;;;;;;1885013;75;21397;-83
2022/06/29 00:07:17;;;;;;;2.37;1.92;;;21.70;99.90;;;;;;1880763;74;21075;-83
2022/06/29 00:12:49;;;;;;;2.62;2.08;;;21.70;99.90;;;;;;1935349;72;22126;-83
2022/06/29 00:15:40;;;;;;;2.00;1.72;;;21.70;99.90;;;;;;1885573;75;21080;-83
2022/06/29 00:18:32;;;;;;;2.90;2.17;;;21.70;99.90;;;;;;1885494;75;21055;-83
2022/06/29 00:21:23;;;;;;;4.70;1.72;;;21.70;99.90;;;;;;1889749;75;21079;-83
2022/06/29 00:27:16;;;;;;;6.12;2.35;;;21.70;99.90;;;;;;1934963;72;22158;-83
2022/06/29 00:30:10;;;;;;;2.83;2.00;;;21.70;99.90;;;;;;1913735;74;21330;-83
2022/06/29 00:33:01;;;;;;;2.58;1.92;;;21.60;99.90;;;;;;1923271;74;21088;-82
2022/06/29 00:35:52;;;;;;;2.15;1.90;;;21.60;99.90;;;;;;1917428;75;21048;-83
2022/06/29 00:39:02;;;;;;;2.70;1.60;;;21.60;99.90;;;;;;1904211;75;21056;-83
2022/06/29 00:41:54;;;;;;;4.00;1.87;;;21.60;99.90;;;;;;1896797;75;21152;-83
2022/06/29 00:44:45;;;;;;;4.60;2.27;;;21.60;99.90;;;;;;1921182;74;21171;-83
2022/06/29 00:47:36;;;;;;;3.25;1.95;;;21.60;99.90;;;;;;1924871;74;21083;-83
2022/06/29 00:53:07;;;;;;;2.40;1.70;;;21.60;99.90;;;;;;1954277;72;22095;-83
2022/06/29 00:56:01;;;;;;;4.17;1.67;;;21.50;99.90;;;;;;1914455;74;21118;-83
2022/06/29 00:58:54;;;;;;;3.40;1.80;;;21.50;99.90;;;;;;1906372;75;21149;-83
2022/06/29 01:01:45;;;;;;;2.05;1.65;;;21.50;99.90;;;;;;1914236;74;21107;-84
2022/06/29 01:07:34;;;;;;;2.85;1.57;;;21.40;99.90;;;;;;1935255;72;22218;-83
2022/06/29 01:10:26;;;;;;;2.75;1.70;;;21.40;99.90;;;;;;1907815;75;21185;-83
2022/06/29 01:13:17;;;;;;;3.75;1.82;;;21.40;99.90;;;;;;1916238;74;21146;-83
2022/06/29 01:16:09;;;;;;;4.10;1.37;;;21.40;99.90;;;;;;1886348;75;21611;-83
2022/06/29 01:19:19;;;;;;;2.10;1.60;;;21.30;99.90;;;;;;1884485;75;21498;-83
2022/06/29 01:22:12;;;;;;;2.90;1.72;;;21.30;99.90;;;;;;1890275;75;21054;-83
2022/06/29 01:25:03;;;;;;;3.40;1.85;;;21.30;99.90;;;;;;1902937;75;21144;-83
2022/06/29 01:27:55;;;;;;;2.58;1.72;;;21.30;99.90;;;;;;1899486;75;21074;-84
2022/06/29 01:30:46;;;;;;;3.33;1.80;;;21.30;99.90;;;;;;1903206;74;21034;-83
2022/06/29 01:33:38;;;;;;;6.20;2.05;;;21.20;99.90;;;;;;1915513;75;21098;-83
2022/06/29 01:36:30;;;;;;;2.47;1.50;;;21.20;99.90;;;;;;1907705;75;21097;-83
2022/06/29 01:39:22;;;;;;;3.92;1.60;;;21.10;99.90;;;;;;1889585;75;21067;-83
2022/06/29 01:42:13;;;;;;;2.08;1.52;;;21.20;99.90;;;;;;1913575;74;21124;-83
2022/06/29 01:45:06;;;;;;;1.82;1.67;;;21.20;99.90;;;;;;1892797;75;21055;-83
2022/06/29 01:47:58;;;;;;;2.77;1.55;;;21.20;99.90;;;;;;1898666;75;21736;-83
2022/06/29 01:50:51;;;;;;;4.42;1.60;;;21.10;99.90;;;;;;1894488;75;21063;-83
2022/06/29 01:53:42;;;;;;;4.17;1.55;;;21.10;99.90;;;;;;1833544;78;21128;-83
2022/06/29 01:56:36;;;;;;;3.95;1.80;;;21.20;99.90;;;;;;1885213;75;21063;-83
2022/06/29 02:02:07;;;;;;;2.75;1.98;;;21.30;99.90;;;;;;1958325;72;22095;-83
2022/06/29 02:04:58;;;;;;;3.15;2.58;;;21.40;99.90;;;;;;1910749;75;21218;-83
2022/06/29 02:07:50;;;;;;;1.98;1.67;;;21.40;99.90;;;;;;1884666;75;21112;-83
2022/06/29 02:10:41;;;;;;;2.90;1.60;;;21.40;99.90;;;;;;1906748;75;21051;-83
2022/06/29 02:13:51;;;;;;;2.27;1.70;;;21.50;99.90;;;;;;1898728;75;21167;-83
2022/06/29 02:19:22;;;;;;;3.08;1.87;;;21.30;99.90;;;;;;1949252;72;22654;-83
2022/06/29 02:22:13;;;;;;;3.17;1.90;;;21.40;99.90;;;;;;1940447;73;21062;-83
2022/06/29 02:25:08;;;;;;;2.95;1.85;;;21.40;99.90;;;;;;1925153;73;21134;-83
2022/06/29 02:28:00;;;;;;;2.98;1.70;;;21.40;99.90;;;;;;1917736;75;21504;-83
2022/06/29 02:36:57;;;;;;;2.33;1.55;;;21.40;99.90;;;;;;1931873;72;22086;-84
2022/06/29 02:39:48;;;;;;;3.70;1.70;;;21.30;99.90;;;;;;1916815;74;21102;-85
2022/06/29 02:42:40;;;;;;;3.75;1.77;;;21.30;99.90;;;;;;1890814;75;21634;-85
2022/06/29 02:48:12;;;;;;;3.42;1.72;;;21.30;99.90;;;;;;1933261;72;22144;-83
2022/06/29 02:51:03;;;;;;;3.90;1.90;;;21.30;99.90;;;;;;1895046;75;21158;-83
2022/06/29 02:56:35;;;;;;;1.95;1.35;;;21.30;99.90;;;;;;1937563;72;22203;-83
2022/06/29 03:02:06;;;;;;;2.35;1.70;;;21.30;99.90;;;;;;1941651;72;22806;-83
2022/06/29 03:04:57;;;;;;;4.53;1.67;;;21.40;99.90;;;;;;1910492;74;21191;-83
2022/06/29 03:07:48;;;;;;;2.33;1.72;;;21.40;99.90;;;;;;1913472;74;21040;-83
2022/06/29 03:10:39;;;;;;;2.87;1.65;;;21.40;99.90;;;;;;1905459;74;21142;-83
2022/06/29 03:13:49;;;;;;;2.60;1.72;;;21.30;99.90;;;;;;1918745;74;21047;-84
2022/06/29 03:16:40;;;;;;;4.28;1.85;;;21.30;99.90;;;;;;1913978;74;21086;-83
2022/06/29 03:19:32;;;;;;;4.25;1.72;;;21.30;99.90;;;;;;1928462;74;21083;-83
2022/06/29 03:22:23;;;;;;;2.80;1.80;;;21.20;99.90;;;;;;1905455;74;21150;-83
2022/06/29 03:25:15;;;;;;;1.95;1.60;;;21.30;99.90;;;;;;1909973;74;21145;-84
2022/06/29 03:28:07;;;;;;;3.45;1.80;;;21.30;99.90;;;;;;1918523;74;21115;-83
2022/06/29 03:30:59;;;;;;;2.80;1.82;;;21.40;99.90;;;;;;1905240;75;21036;-83
2022/06/29 03:33:50;;;;;;;2.87;1.50;;;21.40;99.90;;;;;;1905275;75;21158;-83
2022/06/29 03:36:42;;;;;;;2.85;1.72;;;21.40;99.90;;;;;;1904991;75;21166;-83
2022/06/29 03:39:33;;;;;;;5.35;1.60;;;21.40;99.90;;;;;;1905212;75;21174;-84
2022/06/29 03:42:25;;;;;;;3.08;1.80;;;21.40;99.90;;;;;;1907469;74;21114;-83
2022/06/29 03:45:16;;;;;;;3.15;2.15;;;21.30;99.90;;;;;;1911466;74;21115;-83
2022/06/29 03:48:09;;;;;;;2.90;2.12;;;21.30;99.90;;;;;;1921783;74;21114;-83
2022/06/29 03:51:01;;;;;;;2.72;1.90;;;21.30;99.90;;;;;;1921444;74;21075;-83
2022/06/29 03:53:53;;;;;;;3.22;1.90;;;21.20;99.90;;;;;;1919668;74;21099;-83
2022/06/29 03:56:45;;;;;;;2.35;1.70;;;21.20;99.90;;;;;;1905542;74;21052;-83
2022/06/29 04:02:15;;;;;;;2.90;1.90;;;21.30;99.90;;;;;;1941499;72;22209;-84
2022/06/29 04:05:07;;;;;;;3.83;1.95;;;21.40;99.90;;;;;;1898629;75;21090;-83
2022/06/29 04:07:58;;;;;;;2.98;2.15;;;21.40;99.90;;;;;;1902320;75;21106;-84
2022/06/29 04:10:50;;;;;;;2.35;2.08;;;21.40;99.90;;;;;;1900766;75;21146;-84
2022/06/29 04:13:59;;;;;;;4.42;1.98;;;21.40;99.90;;;;;;1887431;75;21079;-84
2022/06/29 04:16:51;;;;;;;4.17;1.72;;;21.40;99.90;;;;;;1911675;75;21149;-84
2022/06/29 04:22:22;;;;;;;4.50;1.90;;;21.40;99.90;;;;;;1925752;72;22166;-83
2022/06/29 04:25:13;;;;;;;3.77;1.98;;;21.50;99.90;;;;;;1902613;75;21161;-84
2022/06/29 04:28:06;;;;;;;4.97;2.00;;;21.50;99.90;;;;;;1894037;75;21047;-84
2022/06/29 04:30:57;;;;;;;2.83;1.87;;;21.50;99.90;;;;;;1909244;75;21055;-84
2022/06/29 04:34:07;;;;;;;3.58;2.00;;;21.50;99.90;;;;;;1884842;75;21062;-84
2022/06/29 04:36:58;;;;;;;4.65;2.25;;;21.50;99.90;;;;;;1885160;75;21112;-84
2022/06/29 04:39:50;;;;;;;4.08;2.10;;;21.60;99.90;;;;;;1900832;75;21136;-84
2022/06/29 04:42:41;;;;;;;4.53;2.33;;;21.60;99.90;;;;;;1899266;75;21084;-84
2022/06/29 04:48:12;;;;;;;4.70;2.35;;;21.60;99.90;;;;;;1932048;72;22202;-83
2022/06/29 04:51:03;;;;;;;2.87;2.27;;;21.60;99.90;;;;;;1891683;75;21117;-83
2022/06/29 04:53:56;;;;;;;5.85;3.05;;;21.60;99.90;;;;;;1913478;75;21533;-83
2022/06/29 04:56:47;;;;;;;3.00;2.10;;;21.60;99.90;;;;;;1886902;75;21162;-83
2022/06/29 04:59:57;;;;;;;3.15;2.30;;;21.60;99.90;;;;;;1899618;75;21584;-84
2022/06/29 05:02:49;;;;;;;3.33;2.20;;;21.60;99.90;;;;;;1901087;75;21506;-84
2022/06/29 05:05:40;;;;;;;4.87;2.10;;;21.70;99.90;;;;;;1896981;75;21059;-84
2022/06/29 05:08:32;;;;;;;4.35;3.30;;;21.70;99.90;;;;;;1886807;75;21123;-84
2022/06/29 05:11:23;;;;;;;4.05;1.80;;;21.70;99.90;;;;;;1914129;75;21094;-84
2022/06/29 05:16:53;;;;;;;4.42;2.30;;;21.80;99.90;;;;;;1944200;72;22191;-83
2022/06/29 05:19:44;;;;;;;2.90;2.27;;;21.80;99.90;;;;;;1910535;74;21579;-83
2022/06/29 05:22:36;;;;;;;6.20;2.12;;;21.90;99.90;;;;;;1905245;74;21576;-84
2022/06/29 05:25:27;;;;;;;4.15;1.98;;;21.90;99.90;;;;;;1912915;74;21036;-84
2022/06/29 05:28:36;;;;;;;4.30;2.42;;;21.90;99.90;;;;;;1916251;74;21105;-84
2022/06/29 05:34:07;;;;;;;5.28;2.40;;;22.00;99.90;;;;;;1932634;72;22220;-85
2022/06/29 05:36:59;;;;;;;5.78;2.25;;;22.10;99.90;;;;;;1894614;75;21183;-84
2022/06/29 05:42:28;;;;;;;5.97;2.40;;;22.20;99.90;;;;;;1935130;72;22176;-83
2022/06/29 05:45:20;;;;;;;4.33;2.40;;;22.20;99.90;;;;;;1904492;75;21133;-84
2022/06/29 05:48:12;;;;;;;7.47;2.20;;;22.30;99.90;;;;;;1879006;75;21180;-84
2022/06/29 05:51:03;;;;;;;11.90;2.83;;;22.40;99.90;;;;;;1878897;75;21062;-84
2022/06/29 05:56:52;;;;;;;2.95;2.08;;;22.50;99.90;;;;;;1926801;72;22548;-83
2022/06/29 05:59:43;;;;;;;4.00;2.05;;;22.50;99.90;;;;;;1892026;75;21143;-84
2022/06/29 06:02:34;;;;;;;3.67;1.95;;;22.60;99.90;;;;;;1902276;75;21146;-84
2022/06/29 06:05:26;;;;;;;3.10;2.35;;;22.50;99.90;;;;;;1888378;75;21102;-84
2022/06/29 06:08:36;;;;;;;4.70;2.15;;;22.60;99.90;;;;;;1879938;75;21052;-84
2022/06/29 06:11:27;;;;;;;6.28;2.20;;;22.60;99.90;;;;;;1876233;75;21066;-84
2022/06/29 06:14:19;;;;;;;3.12;1.80;;;22.70;99.90;;;;;;1890124;75;21106;-84
2022/06/29 06:17:10;;;;;;;6.05;2.30;;;22.80;99.90;;;;;;1876496;75;21070;-84
2022/06/29 06:20:03;;;;;;;4.55;2.33;;;22.90;99.90;;;;;;1896470;75;21129;-84
2022/06/29 06:22:54;;;;;;;3.22;2.08;;;22.80;99.90;;;;;;1884498;75;21080;-84
2022/06/29 06:28:26;;;;;;;3.33;2.02;;;22.80;99.90;;;;;;1947252;72;22239;-83
2022/06/29 06:33:58;;;;;;;3.50;2.20;;;22.90;99.90;;;;;;1935278;72;22213;-83
2022/06/29 06:39:28;;;;;;;4.33;2.17;;;23.00;99.90;;;;;;1945909;72;22151;-83
2022/06/29 06:42:19;;;;;;;4.87;2.20;;;23.00;99.90;;;;;;1908776;75;21648;-83
2022/06/29 06:45:12;;;;;;;3.85;2.02;;;23.00;99.90;;;;;;1915759;74;21018;-83
2022/06/29 06:48:04;;;;;;;5.22;2.10;;;23.00;99.90;;;;;;1907584;74;21141;-83
2022/06/29 06:51:14;;;;;;;2.33;2.10;;;22.90;99.90;;;;;;1912263;74;21022;-84
2022/06/29 06:54:07;;;;;;;3.72;2.10;;;22.90;99.90;;;;;;1918887;74;21069;-84
2022/06/29 06:56:58;;;;;;;4.55;2.00;;;22.90;99.90;;;;;;1918560;74;21071;-85
2022/06/29 06:59:53;;;;;;;3.30;2.00;;;22.90;99.90;;;;;;1905406;74;21159;-84
2022/06/29 07:02:46;;;;;;;4.20;1.80;;;23.00;99.90;;;;;;1911108;73;21091;-83
2022/06/29 07:05:39;;;;;;;5.92;1.95;;;23.00;99.90;;;;;;1910277;75;21115;-83
2022/06/29 07:08:33;;;;;;;4.30;1.90;;;23.10;99.90;;;;;;1927175;74;21055;-83
2022/06/29 07:11:24;;;;;;;5.35;2.02;;;23.30;99.90;;;;;;1909002;75;21117;-83
2022/06/29 07:14:16;;;;;;;3.58;1.75;;;23.30;99.90;;;;;;1922161;73;21040;-84
2022/06/29 07:17:16;;;;;;;3.60;2.58;;;23.40;99.90;;;;;;1912605;73;21054;-83
2022/06/29 07:22:51;;;;;;;3.37;1.77;;;23.60;99.90;;;;;;1947263;72;22157;-82
2022/06/29 07:25:42;;;;;;;2.70;2.00;;;23.70;99.90;;;;;;1898546;74;21166;-82
2022/06/29 07:28:34;;;;;;;3.10;1.90;;;23.70;99.90;;;;;;1884465;75;21160;-83
2022/06/29 07:31:25;;;;;;;3.87;2.10;;;23.70;99.90;;;;;;1904024;75;21105;-83
2022/06/29 07:37:17;;;;;;;5.62;1.98;;;23.70;99.90;;;;;;1942936;72;22169;-82
2022/06/29 07:40:14;;;;;;;4.03;2.10;;;23.70;99.90;;;;;;1928995;73;21109;-83
2022/06/29 07:43:06;;;;;;;3.52;2.00;;;23.90;99.90;;;;;;1926112;73;21146;-82
2022/06/29 07:45:58;;;;;;;4.58;2.17;;;24.00;99.90;;;;;;1933054;73;21615;-82
2022/06/29 07:49:09;;;;;;;4.75;2.20;;;24.20;99.90;;;;;;1914033;75;21135;-83
2022/06/29 07:54:39;;;;;;;4.55;2.33;;;24.50;99.90;;;;;;1933077;72;22174;-83
2022/06/29 07:57:31;;;;;;;5.03;2.10;;;24.50;99.90;;;;;;1904659;75;21176;-83
2022/06/29 08:00:22;;;;;;;3.87;2.47;;;24.40;99.90;;;;;;1888909;75;21637;-82
2022/06/29 08:03:14;;;;;;;9.35;2.35;;;24.50;99.90;;;;;;1901872;75;21067;-82
2022/06/29 08:09:05;;;;;;;3.35;2.50;;;24.60;99.90;;;;;;1950864;72;22106;-83
2022/06/29 08:11:56;;;;;;;4.33;2.50;;;24.70;99.90;;;;;;1907199;75;21570;-82
2022/06/29 08:17:27;;;;;;;4.00;2.10;;;24.40;99.90;;;;;;1933836;72;22328;-83
2022/06/29 08:20:21;;;;;;;4.28;2.10;;;24.20;99.90;;;;;;1901052;74;21150;-83
2022/06/29 08:23:13;;;;;;;4.72;2.45;;;24.20;99.90;;;;;;1897665;74;21146;-83
2022/06/29 08:26:05;;;;;;;3.87;2.30;;;24.10;99.90;;;;;;1878446;75;21109;-83
2022/06/29 08:29:16;;;;;;;3.85;2.45;;;24.10;99.90;;;;;;1916014;74;21102;-83
2022/06/29 08:32:09;;;;;;;5.45;2.55;;;24.20;99.90;;;;;;1903268;74;21138;-83
2022/06/29 08:35:01;;;;;;;4.40;2.33;;;24.30;99.90;;;;;;1846466;77;21145;-83
2022/06/29 08:37:54;;;;;;;5.10;3.85;;;24.50;99.90;;;;;;1836512;77;21199;-83
2022/06/29 08:40:46;;;;;;;4.60;2.75;;;24.80;99.90;;;;;;1852700;77;21207;-83
2022/06/29 08:43:38;;;;;;;4.08;2.65;;;25.00;99.90;;;;;;1912402;75;21022;-83
2022/06/29 08:46:29;;;;;;;3.90;2.40;;;25.30;99.90;;;;;;1918006;74;21109;-84
2022/06/29 08:52:03;;;;;;;5.72;2.72;;;25.60;99.90;;;;;;1941305;72;22169;-83
2022/06/29 08:57:36;;;;;;;6.15;2.58;;;25.30;99.90;;;;;;1942735;72;22755;-82
2022/06/29 09:00:29;;;;;;;4.72;2.90;;;25.40;99.90;;;;;;1906157;75;21142;-83
2022/06/29 09:03:22;;;;;;;7.17;3.40;;;25.70;99.90;;;;;;1897517;75;21038;-83
2022/06/29 09:06:13;;;;;;;5.28;2.70;;;25.50;99.90;;;;;;1907557;75;21109;-84
2022/06/29 09:09:23;;;;;;;5.95;2.90;;;25.30;99.90;;;;;;1915255;75;21185;-82
2022/06/29 09:12:19;;;;;;;4.95;2.27;;;25.10;99.90;;;;;;1862974;76;21220;-83
2022/06/29 09:15:13;;;;;;;3.65;2.40;;;25.00;99.90;;;;;;1905464;75;21168;-82
2022/06/29 09:18:07;;;;;;;4.35;2.60;;;25.10;99.90;;;;;;1886181;75;21183;-82
2022/06/29 09:21:00;;;;;;;3.77;3.05;;;25.30;99.90;;;;;;1893824;75;21059;-82
2022/06/29 09:23:51;;;;;;;4.33;2.85;;;25.70;99.90;;;;;;1894727;75;21076;-83
2022/06/29 09:26:43;;;;;;;3.75;2.77;;;25.70;99.90;;;;;;1902845;75;21141;-83
2022/06/29 09:32:17;;;;;;;4.00;3.02;;;25.50;99.90;;;;;;1937406;72;22130;-83
2022/06/29 09:35:13;;;;;;;6.00;3.10;;;25.70;99.90;;;;;;1896112;74;21135;-83
2022/06/29 09:38:24;;;;;;;3.70;3.05;;;25.80;99.90;;;;;;1887058;75;21070;-83
2022/06/29 09:41:17;;;;;;;5.90;3.70;;;25.90;99.90;;;;;;1884607;75;21051;-84
2022/06/29 09:44:11;;;;;;;5.15;3.02;;;25.80;99.90;;;;;;1884649;75;21117;-83
2022/06/29 09:47:06;;;;;;;4.70;3.37;;;25.70;99.90;;;;;;1891850;75;21043;-83
2022/06/29 09:49:59;;;;;;;6.20;3.33;;;26.00;99.90;;;;;;1884472;75;21641;-83
2022/06/29 09:52:51;;;;;;;4.75;3.27;;;26.10;99.90;;;;;;1890833;75;21112;-84
2022/06/29 09:55:43;;;;;;;6.85;3.75;;;26.30;99.90;;;;;;1901028;75;21097;-83
2022/06/29 10:07:14;;;;;;;6.12;3.70;;;25.90;99.90;;;;;;1943432;72;22117;-82
2022/06/29 10:10:09;;;;;;;4.60;3.47;;;25.90;99.90;;;;;;1926658;73;21120;-83
2022/06/29 10:22:04;;;;;;;3.05;2.60;;;25.70;99.90;;;;;;1945213;72;22211;-83
2022/06/29 10:25:07;;;;;;;5.05;2.77;;;25.60;99.90;;;;;;1919254;73;21068;-83
2022/06/29 10:28:20;;;;;;;5.45;2.50;;;25.60;99.90;;;;;;1926557;73;21583;-83
2022/06/29 10:31:15;;;;;;;3.00;1.87;;;25.70;99.90;;;;;;1935545;73;21106;-83
2022/06/29 10:34:25;;;;;;;3.80;2.20;;;25.60;99.90;;;;;;1919007;73;21364;-83
2022/06/29 10:37:21;;;;;;;5.22;1.90;;;25.60;99.90;;;;;;1917653;75;21070;-83
2022/06/29 10:43:10;;;;;;;5.83;2.17;;;25.70;99.90;;;;;;1952296;72;22656;-82
2022/06/29 10:46:01;;;;;;;4.37;1.60;;;25.90;99.90;;;;;;1902268;75;21095;-82
2022/06/29 10:52:04;;;;;;;3.83;1.82;;;25.80;99.90;;;;;;1957222;72;22208;-82
2022/06/29 10:54:55;;;;;;;3.52;1.90;;;26.00;99.90;;;;;;1934388;73;21201;-83
2022/06/29 10:57:47;;;;;;;2.87;1.80;;;26.10;99.90;;;;;;1913079;74;21113;-82
2022/06/29 11:00:40;;;;;;;6.37;2.20;;;26.10;99.90;;;;;;1937344;73;21205;-82
2022/06/29 11:03:32;;;;;;;4.03;2.12;;;26.20;99.90;;;;;;1940202;73;21167;-82
2022/06/29 11:12:29;;;;;;;3.77;1.77;;;26.50;99.90;;;;;;1949816;72;22219;-82
2022/06/29 11:18:08;;;;;;;3.47;1.55;;;26.70;99.90;;;;;;1938558;72;22237;-83
2022/06/29 11:21:03;;;;;;;3.80;2.60;;;26.60;99.90;;;;;;1899219;75;21061;-83
2022/06/29 11:24:02;;;;;;;4.17;2.42;;;26.60;99.90;;;;;;1923651;74;21102;-83
2022/06/29 11:26:53;;;;;;;3.00;1.90;;;26.60;99.90;;;;;;1931870;74;21091;-83
2022/06/29 11:29:45;;;;;;;2.75;1.87;;;26.60;99.90;;;;;;1919554;74;21105;-83
2022/06/29 11:32:39;;;;;;;2.58;2.02;;;26.70;99.90;;;;;;1906675;74;21506;-83
2022/06/29 11:38:11;;;;;;;3.70;2.00;;;26.90;99.90;;;;;;1944197;72;22233;-83
2022/06/29 11:41:11;;;;;;;2.85;2.20;;;26.90;99.90;;;;;;1884870;75;21185;-83
2022/06/29 11:44:05;;;;;;;4.80;2.20;;;26.90;99.90;;;;;;1915671;75;21099;-83
2022/06/29 11:46:59;;;;;;;8.63;2.22;;;27.00;99.90;;;;;;1884817;75;21157;-83
2022/06/29 11:49:51;;;;;;;4.30;2.20;;;27.00;99.90;;;;;;1894366;75;21086;-83
2022/06/29 11:52:44;;;;;;;4.55;2.27;;;27.00;99.90;;;;;;1895833;75;21095;-83
2022/06/29 11:55:46;;;;;;;4.35;2.65;;;27.00;99.90;;;;;;1896646;75;21117;-83
2022/06/29 11:58:38;;;;;;;3.80;2.65;;;27.00;99.90;;;;;;1902691;75;21051;-83
2022/06/29 12:01:29;;;;;;;4.08;2.62;;;27.00;99.90;;;;;;1897705;75;21107;-83
2022/06/29 12:04:29;;;;;;;3.02;2.58;;;26.90;99.90;;;;;;1895247;75;21112;-83
2022/06/29 12:07:22;;;;;;;5.17;2.42;;;27.00;99.90;;;;;;1895498;75;21106;-83
2022/06/29 12:10:16;;;;;;;3.42;2.30;;;27.20;99.90;;;;;;1896320;75;21168;-83
2022/06/29 12:13:08;;;;;;;3.60;2.37;;;27.20;99.90;;;;;;1901493;75;21050;-83
2022/06/29 12:15:59;;;;;;;3.10;2.00;;;27.30;99.90;;;;;;1896905;75;21076;-83
2022/06/29 12:18:51;;;;;;;5.37;2.80;;;27.40;99.90;;;;;;1910949;75;21110;-83
2022/06/29 12:21:43;;;;;;;7.08;2.60;;;27.40;99.90;;;;;;1906518;75;21113;-83
2022/06/29 12:24:35;;;;;;;5.67;2.70;;;27.50;99.90;;;;;;1884390;76;21059;-83
2022/06/29 12:27:27;;;;;;;5.35;2.60;;;27.50;99.90;;;;;;1897675;75;21094;-83
2022/06/29 12:30:18;;;;;;;5.33;3.05;;;27.50;99.90;;;;;;1909440;75;21125;-83
2022/06/29 12:33:10;;;;;;;4.45;3.00;;;27.40;99.90;;;;;;1906898;75;21109;-83
2022/06/29 12:36:02;;;;;;;4.33;2.30;;;27.70;99.90;;;;;;1904392;75;21164;-83
2022/06/29 12:38:53;;;;;;;4.25;2.15;;;27.90;99.90;;;;;;1907682;74;21140;-83
2022/06/29 12:41:44;;;;;;;4.30;2.35;;;27.90;99.90;;;;;;1918316;74;21188;-83
2022/06/29 12:44:36;;;;;;;3.15;2.15;;;27.80;99.90;;;;;;1898123;74;21196;-83
2022/06/29 12:47:28;;;;;;;3.42;1.92;;;27.90;99.90;;;;;;1906461;74;21061;-82
2022/06/29 12:50:20;;;;;;;3.42;1.87;;;27.80;99.90;;;;;;1908740;74;21113;-83
2022/06/29 12:53:12;;;;;;;3.02;1.98;;;27.80;99.90;;;;;;1916896;74;21093;-83
2022/06/29 12:56:04;;;;;;;2.75;2.12;;;27.80;99.90;;;;;;1915676;74;21047;-83
2022/06/29 12:58:55;;;;;;;2.75;2.20;;;27.80;99.90;;;;;;1893363;75;21122;-83
2022/06/29 13:01:48;;;;;;;2.90;1.90;;;27.80;99.90;;;;;;1909669;74;21109;-83
2022/06/29 13:04:39;;;;;;;4.67;2.22;;;27.70;99.90;;;;;;1905222;74;21091;-83
2022/06/29 13:07:31;;;;;;;3.12;1.98;;;27.80;99.90;;;;;;1904406;74;21152;-83
2022/06/29 13:10:23;;;;;;;3.17;1.70;;;28.00;99.90;;;;;;1904626;74;21125;-83
2022/06/29 13:13:14;;;;;;;2.47;1.70;;;27.90;99.90;;;;;;1907653;74;21603;-83
2022/06/29 13:16:07;;;;;;;4.83;1.80;;;27.90;99.90;;;;;;1907332;74;21103;-83
2022/06/29 13:18:59;;;;;;;3.35;1.47;;;27.90;99.90;;;;;;1917953;74;21046;-82
2022/06/29 13:21:50;;;;;;;4.10;1.98;;;27.90;99.90;;;;;;1897130;74;21090;-83
2022/06/29 13:24:42;;;;;;;3.90;1.67;;;28.00;99.90;;;;;;1906049;74;21118;-82
2022/06/29 13:27:34;;;;;;;3.30;1.72;;;28.00;99.90;;;;;;1908848;74;21102;-83
2022/06/29 13:30:26;;;;;;;4.37;1.90;;;28.20;99.90;;;;;;1916746;74;21062;-82
2022/06/29 13:33:18;;;;;;;3.50;1.60;;;28.20;99.90;;;;;;1898093;74;21212;-83
2022/06/29 13:36:12;;;;;;;7.17;1.77;;;28.20;99.90;;;;;;1904468;74;21109;-83
2022/06/29 13:39:04;;;;;;;4.05;1.67;;;28.30;99.90;;;;;;1885513;75;21115;-83
2022/06/29 13:41:56;;;;;;;3.08;1.57;;;28.40;99.90;;;;;;1893596;75;21101;-83
2022/06/29 13:44:51;;;;;;;5.17;1.70;;;28.60;99.90;;;;;;1891789;75;21228;-84
2022/06/29 13:47:43;;;;;;;6.10;1.50;;;28.90;99.90;;;;;;1892054;75;21540;-83
2022/06/29 13:50:37;;;;;;;3.27;1.82;;;29.10;99.90;;;;;;1894477;75;21119;-83
2022/06/29 13:53:29;;;;;;;4.45;1.80;;;29.30;99.90;;;;;;1896039;75;21174;-83
2022/06/29 13:56:22;;;;;;;2.77;1.85;;;29.10;99.90;;;;;;1904366;75;21639;-82
2022/06/29 13:59:18;;;;;;;7.10;1.90;;;29.00;99.90;;;;;;1903105;75;21062;-83
2022/06/29 14:02:11;;;;;;;4.78;1.92;;;29.40;99.90;;;;;;1903233;75;21527;-83
2022/06/29 14:05:05;;;;;;;3.08;1.90;;;29.60;99.90;;;;;;1898007;75;21175;-83
2022/06/29 14:08:00;;;;;;;3.62;1.65;;;29.90;99.90;;;;;;1865005;75;21553;-83
2022/06/29 14:10:57;;;;;;;6.08;1.75;;;29.90;99.90;;;;;;1905373;75;21108;-82
2022/06/29 14:13:50;;;;;;;3.15;1.47;;;29.90;99.90;;;;;;1881263;75;21129;-82
2022/06/29 14:16:47;;;;;;;3.60;1.80;;;30.00;99.90;;;;;;1880953;75;21093;-83
2022/06/29 14:19:41;;;;;;;3.10;1.75;;;30.20;99.90;;;;;;1881099;76;21603;-83
2022/06/29 14:22:35;;;;;;;4.97;1.70;;;30.30;99.90;;;;;;1884158;75;21103;-83
2022/06/29 14:25:29;;;;;;;2.27;1.67;;;30.50;99.90;;;;;;1884288;75;21179;-83
2022/06/29 14:28:22;;;;;;;2.72;1.50;;;30.30;99.90;;;;;;1903115;75;21053;-83
2022/06/29 14:31:15;;;;;;;4.67;1.95;;;30.50;99.90;;;;;;1901647;75;21049;-83
2022/06/29 14:34:09;;;;;;;3.05;1.70;;;30.60;99.90;;;;;;1895460;75;21215;-83
2022/06/29 14:37:03;;;;;;;3.37;1.40;;;30.70;99.90;;;;;;1891938;75;21042;-83
2022/06/29 14:39:56;;;;;;;3.83;1.45;;;31.00;99.90;;;;;;1881156;75;21542;-83
2022/06/29 14:42:49;;;;;;;3.92;1.70;;;30.90;99.90;;;;;;1905712;75;21586;-83
2022/06/29 14:45:43;;;;;;;3.08;1.98;;;31.00;99.90;;;;;;1872129;77;21200;-83
2022/06/29 14:48:38;;;;;;;4.00;1.85;;;31.00;99.90;;;;;;1885395;75;21120;-83
2022/06/29 14:51:32;;;;;;;1.80;1.40;;;31.10;99.90;;;;;;1904250;75;21084;-83
2022/06/29 14:54:24;;;;;;;3.50;1.70;;;31.20;99.90;;;;;;1894322;75;21118;-83
2022/06/29 14:57:16;;;;;;;1.42;1.20;;;31.20;99.90;;;;;;1882865;75;21110;-83
2022/06/29 15:00:11;;;;;;;4.00;1.60;;;31.20;99.90;;;;;;1883696;75;21111;-83
2022/06/29 15:03:12;;;;;;;2.87;1.45;;;31.40;99.90;;;;;;1896109;75;21096;-82
2022/06/29 15:06:06;;;;;;;1.47;1.22;;;32.00;99.90;;;;;;1907673;75;21106;-83
2022/06/29 15:09:00;;;;;;;2.08;1.45;;;31.70;99.90;;;;;;1887994;75;21145;-83
2022/06/29 15:11:55;;;;;;;3.65;1.57;;;32.10;99.90;;;;;;1883404;75;21059;-83
2022/06/29 15:14:50;;;;;;;5.00;1.33;;;31.90;99.90;;;;;;1901689;75;21107;-83
2022/06/29 15:17:44;;;;;;;4.78;1.70;;;31.90;99.90;;;;;;1896924;75;21228;-83
2022/06/29 15:20:38;;;;;;;2.12;1.45;;;31.90;99.90;;;;;;1882454;75;21511;-83
2022/06/29 15:23:32;;;;;;;6.55;1.45;;;32.10;99.90;;;;;;1894532;74;21060;-83
2022/06/29 15:26:26;;;;;;;2.60;1.60;;;32.20;99.90;;;;;;1895532;75;21114;-83
2022/06/29 15:29:19;;;;;;;4.00;1.30;;;32.30;99.90;;;;;;1900328;75;21505;-83
2022/06/29 15:32:11;;;;;;;5.33;1.70;;;32.90;99.90;;;;;;1882985;75;21550;-83
2022/06/29 15:41:31;;;;;;;2.58;1.55;;;33.50;99.10;;;;;;1887505;74;21075;-80
2022/06/29 15:44:23;;;;;;;3.00;1.40;;;33.40;98.70;;;;;;1915268;74;21050;-81
2022/06/29 15:47:14;;;;;;;3.67;1.62;;;33.50;97.90;;;;;;1910827;74;21106;-80
2022/06/29 15:50:07;;;;;;;3.70;1.37;;;33.40;96.90;;;;;;1906118;74;21094;-80
2022/06/29 15:56:09;;;;;;;4.22;1.42;;;33.30;96.40;;;;;;1914958;74;21142;-80
2022/06/29 15:59:00;;;;;;;2.33;1.37;;;33.50;96.30;;;;;;1915293;74;21059;-80
2022/06/29 16:01:53;;;;;;;1.85;1.37;;;33.30;96.10;;;;;;1912439;74;21136;-80
2022/06/29 16:04:44;;;;;;;4.90;1.60;;;33.00;96.10;;;;;;1906375;74;21184;-81
2022/06/29 16:07:36;;;;;;;3.77;1.32;;;33.10;96.20;;;;;;1903974;74;21111;-81
2022/06/29 16:10:27;;;;;;;3.40;1.40;;;33.00;96.30;;;;;;1902168;74;21617;-80
2022/06/29 16:13:20;;;;;;;3.70;1.50;;;33.40;95.90;;;;;;1912819;74;21098;-81
2022/06/29 16:16:13;;;;;;;2.40;1.32;;;33.70;95.40;;;;;;1893463;76;21091;-80
2022/06/29 16:19:05;;;;;;;2.12;1.40;;;33.60;95.40;;;;;;1902465;74;21212;-80
2022/06/29 16:21:57;;;;;;;4.67;1.85;;;33.70;94.70;;;;;;1899565;74;21139;-81
2022/06/29 16:24:49;;;;;;;3.50;1.52;;;33.80;94.20;;;;;;1893490;76;21152;-80
2022/06/29 16:27:41;;;;;;;3.08;1.20;;;33.70;93.70;;;;;;1893408;76;21157;-80
2022/06/29 16:30:33;;;;;;;3.58;1.40;;;33.60;93.40;;;;;;1905322;74;21163;-80
2022/06/29 16:33:24;;;;;;;3.80;1.20;;;33.60;93.80;;;;;;1919748;74;21179;-80
2022/06/29 16:36:15;;;;;;;1.70;1.40;;;33.80;93.30;;;;;;1894690;74;21549;-80
2022/06/29 16:39:08;;;;;;;3.15;1.47;;;33.90;93.10;;;;;;1908202;74;21556;-80
2022/06/29 16:42:00;;;;;;;1.80;1.30;;;34.00;92.40;;;;;;1893659;74;21074;-81
2022/06/29 16:44:52;;;;;;;1.85;1.10;;;33.90;92.40;;;;;;1893514;75;21054;-80
2022/06/29 16:50:41;;;;;;;2.87;1.35;;;33.50;91.90;;;;;;1957968;72;22128;-80
2022/06/29 16:53:33;;;;;;;2.55;1.27;;;33.80;91.40;;;;;;1901003;75;21084;-80
2022/06/29 16:56:25;;;;;;;2.98;1.10;;;33.80;91.40;;;;;;1917552;75;21110;-80
2022/06/29 16:59:18;;;;;;;3.15;1.70;;;34.20;91.20;;;;;;1895578;75;21051;-80
2022/06/29 17:02:11;;;;;;;2.37;1.30;;;33.70;91.70;;;;;;1894938;75;21141;-80
2022/06/29 17:05:03;;;;;;;1.45;1.22;;;33.90;91.20;;;;;;1884648;76;21114;-80
2022/06/29 17:07:54;;;;;;;2.45;1.22;;;33.70;91.20;;;;;;1896111;75;21050;-80
2022/06/29 17:10:46;;;;;;;3.47;1.10;;;33.40;91.20;;;;;;1895122;75;21593;-80